createdAt,value
2022-10-28T00:00:03.083Z,15.00
2022-10-28T00:01:03.051Z,15.00
2022-10-28T00:02:03.190Z,15.00
2022-10-28T00:03:02.968Z,15.00
2022-10-28T00:04:02.916Z,15.00
2022-10-28T00:05:02.913Z,15.00
2022-10-28T00:06:02.860Z,15.00
2022-10-28T00:07:02.933Z,15.00
2022-10-28T00:08:02.984Z,15.00
2022-10-28T00:09:04.562Z,15.00
2022-10-28T00:10:03.396Z,15.00
2022-10-28T00:11:03.550Z,15.00
2022-10-28T00:12:03.606Z,15.00
2022-10-28T00:13:03.595Z,15.10
2022-10-28T00:14:03.566Z,15.10
2022-10-28T00:15:03.511Z,15.10
2022-10-28T00:16:02.612Z,15.10
2022-10-28T00:17:02.729Z,15.10
2022-10-28T00:18:02.690Z,15.10
2022-10-28T00:19:02.762Z,15.10
2022-10-28T00:20:02.928Z,15.10
2022-10-28T00:21:02.874Z,15.10
2022-10-28T00:22:02.835Z,15.10
2022-10-28T00:23:02.784Z,15.10
2022-10-28T00:24:02.878Z,15.10
2022-10-28T00:25:02.839Z,15.10
2022-10-28T00:26:02.819Z,15.10
2022-10-28T00:27:02.726Z,15.10
2022-10-28T00:28:02.768Z,15.10
2022-10-28T00:29:02.816Z,15.10
2022-10-28T00:30:02.745Z,15.10
2022-10-28T00:31:02.795Z,15.10
2022-10-28T00:32:02.677Z,15.10
2022-10-28T00:33:02.816Z,15.10
2022-10-28T00:34:02.932Z,15.10
2022-10-28T00:35:02.876Z,15.00
2022-10-28T00:36:03.244Z,15.00
2022-10-28T00:37:02.830Z,15.00
2022-10-28T00:38:02.922Z,15.00
2022-10-28T00:39:02.920Z,15.00
2022-10-28T00:40:02.952Z,15.00
2022-10-28T00:41:02.980Z,15.00
2022-10-28T00:42:03.052Z,15.00
2022-10-28T00:43:02.987Z,15.00
2022-10-28T00:44:03.067Z,15.00
2022-10-28T00:45:03.116Z,15.00
2022-10-28T00:46:03.137Z,15.00
2022-10-28T00:47:03.161Z,15.00
2022-10-28T00:48:03.204Z,15.00
2022-10-28T00:49:03.226Z,15.00
2022-10-28T00:50:03.267Z,15.00
2022-10-28T00:51:03.286Z,15.00
2022-10-28T00:52:03.299Z,15.00
2022-10-28T00:53:03.298Z,15.00
2022-10-28T00:54:03.279Z,15.00
2022-10-28T00:55:03.282Z,15.00
2022-10-28T00:56:03.296Z,15.00
2022-10-28T00:57:03.430Z,15.00
2022-10-28T00:58:03.411Z,15.00
2022-10-28T00:59:03.345Z,15.00
2022-10-28T01:00:03.498Z,15.00
2022-10-28T01:01:03.519Z,15.00
2022-10-28T01:02:03.727Z,15.00
2022-10-28T01:03:03.651Z,15.00
2022-10-28T01:04:02.715Z,15.00
2022-10-28T01:05:02.712Z,15.00
2022-10-28T01:06:02.753Z,15.00
2022-10-28T01:07:02.772Z,15.00
2022-10-28T01:08:02.808Z,15.00
2022-10-28T01:09:02.748Z,15.00
2022-10-28T01:10:02.789Z,15.00
2022-10-28T01:11:02.762Z,15.00
2022-10-28T01:12:02.754Z,15.00
2022-10-28T01:13:02.796Z,15.00
2022-10-28T01:14:02.743Z,15.00
2022-10-28T01:15:02.689Z,15.00
2022-10-28T01:16:02.731Z,15.00
2022-10-28T01:17:02.827Z,15.00
2022-10-28T01:18:02.863Z,15.00
2022-10-28T01:19:02.818Z,15.00
2022-10-28T01:20:02.922Z,15.00
2022-10-28T01:21:02.882Z,15.00
2022-10-28T01:22:02.967Z,15.00
2022-10-28T01:23:02.908Z,15.00
2022-10-28T01:24:02.962Z,15.00
2022-10-28T01:25:02.963Z,15.00
2022-10-28T01:26:02.908Z,15.00
2022-10-28T01:27:03.035Z,15.00
2022-10-28T01:28:03.015Z,15.00
2022-10-28T01:29:03.188Z,15.00
2022-10-28T01:30:03.259Z,15.00
2022-10-28T01:31:03.263Z,15.00
2022-10-28T01:32:03.332Z,15.00
2022-10-28T01:33:03.302Z,15.00
2022-10-28T01:34:03.354Z,15.00
2022-10-28T01:35:03.199Z,15.00
2022-10-28T01:36:03.347Z,15.00
2022-10-28T01:37:03.358Z,15.00
2022-10-28T01:38:02.689Z,15.00
2022-10-28T01:39:02.855Z,15.00
2022-10-28T01:40:03.345Z,15.00
2022-10-28T01:41:03.374Z,15.00
2022-10-28T01:42:03.340Z,14.90
2022-10-28T01:43:03.541Z,14.90
2022-10-28T01:44:03.513Z,14.90
2022-10-28T01:45:03.541Z,14.90
2022-10-28T01:46:03.621Z,14.90
2022-10-28T01:47:02.656Z,14.90
2022-10-28T01:48:02.697Z,14.90
2022-10-28T01:49:02.641Z,14.90
2022-10-28T01:50:03.609Z,14.90
2022-10-28T01:51:03.569Z,14.90
2022-10-28T01:52:03.558Z,14.90
2022-10-28T01:53:02.613Z,14.90
2022-10-28T01:54:02.647Z,14.90
2022-10-28T01:55:02.632Z,14.90
2022-10-28T01:56:02.690Z,14.80
2022-10-28T01:57:02.755Z,14.80
2022-10-28T01:58:02.832Z,14.80
2022-10-28T01:59:02.837Z,14.80
2022-10-28T02:00:02.819Z,14.80
2022-10-28T02:01:02.963Z,14.80
2022-10-28T02:03:02.783Z,14.80
2022-10-28T02:04:02.811Z,14.80
2022-10-28T02:05:02.852Z,14.70
2022-10-28T02:06:02.807Z,14.70
2022-10-28T02:07:02.785Z,14.70
2022-10-28T02:08:02.919Z,14.70
2022-10-28T02:09:02.908Z,14.70
2022-10-28T02:10:02.868Z,14.70
2022-10-28T02:11:02.901Z,14.70
2022-10-28T02:12:02.978Z,14.60
2022-10-28T02:13:03.109Z,14.60
2022-10-28T02:14:03.072Z,14.60
2022-10-28T02:15:03.159Z,14.60
2022-10-28T02:16:03.216Z,14.60
2022-10-28T02:17:03.294Z,14.60
2022-10-28T02:18:03.218Z,14.60
2022-10-28T02:19:03.368Z,14.60
2022-10-28T02:20:03.313Z,14.60
2022-10-28T02:21:03.394Z,14.60
2022-10-28T02:22:03.439Z,14.60
2022-10-28T02:23:03.106Z,14.60
2022-10-28T02:24:03.218Z,14.60
2022-10-28T02:25:03.141Z,14.60
2022-10-28T02:26:03.225Z,14.60
2022-10-28T02:27:03.257Z,14.60
2022-10-28T02:28:03.299Z,14.60
2022-10-28T02:29:03.205Z,14.60
2022-10-28T02:30:03.267Z,14.60
2022-10-28T02:31:03.218Z,14.60
2022-10-28T02:32:03.274Z,14.60
2022-10-28T02:33:03.324Z,14.60
2022-10-28T02:34:03.368Z,14.60
2022-10-28T02:35:03.415Z,14.60
2022-10-28T02:36:03.324Z,14.50
2022-10-28T02:37:03.378Z,14.50
2022-10-28T02:38:03.301Z,14.50
2022-10-28T02:39:03.451Z,14.50
2022-10-28T02:40:03.405Z,14.50
2022-10-28T02:41:03.510Z,14.50
2022-10-28T02:42:03.548Z,14.50
2022-10-28T02:43:02.661Z,14.50
2022-10-28T02:44:02.702Z,14.50
2022-10-28T02:45:03.635Z,14.50
2022-10-28T02:46:02.744Z,14.40
2022-10-28T02:47:02.857Z,14.40
2022-10-28T02:48:02.893Z,14.40
2022-10-28T02:49:02.947Z,14.40
2022-10-28T02:50:03.131Z,14.40
2022-10-28T02:51:03.138Z,14.40
2022-10-28T02:52:03.116Z,14.40
2022-10-28T02:53:03.041Z,14.40
2022-10-28T02:54:03.002Z,14.40
2022-10-28T02:55:03.027Z,14.40
2022-10-28T02:56:03.071Z,14.30
2022-10-28T02:57:03.052Z,14.30
2022-10-28T02:58:03.174Z,14.30
2022-10-28T02:59:03.166Z,14.30
2022-10-28T03:00:03.085Z,14.30
2022-10-28T03:01:03.207Z,14.30
2022-10-28T03:02:03.266Z,14.20
2022-10-28T03:03:03.300Z,14.20
2022-10-28T03:04:03.292Z,14.20
2022-10-28T03:05:03.346Z,14.20
2022-10-28T03:06:03.362Z,14.20
2022-10-28T03:07:03.435Z,14.10
2022-10-28T03:08:03.339Z,14.10
2022-10-28T03:09:03.398Z,14.10
2022-10-28T03:10:03.351Z,14.10
2022-10-28T03:11:03.449Z,14.10
2022-10-28T03:12:03.339Z,14.10
2022-10-28T03:13:03.486Z,14.10
2022-10-28T03:14:03.464Z,14.10
2022-10-28T03:15:03.512Z,14.10
2022-10-28T03:16:03.679Z,14.10
2022-10-28T03:17:02.994Z,14.10
2022-10-28T03:18:02.916Z,14.10
2022-10-28T03:19:02.960Z,14.10
2022-10-28T03:20:02.878Z,14.10
2022-10-28T03:21:02.974Z,14.00
2022-10-28T03:22:03.056Z,14.00
2022-10-28T03:23:03.036Z,14.00
2022-10-28T03:24:03.018Z,14.00
2022-10-28T03:25:03.064Z,14.00
2022-10-28T03:26:03.151Z,14.00
2022-10-28T03:27:03.183Z,14.00
2022-10-28T03:28:03.237Z,14.00
2022-10-28T03:29:03.222Z,14.00
2022-10-28T03:30:03.203Z,14.00
2022-10-28T03:31:03.300Z,14.00
2022-10-28T03:32:03.437Z,14.00
2022-10-28T03:33:03.308Z,14.00
2022-10-28T03:34:03.282Z,13.90
2022-10-28T03:35:03.322Z,13.90
2022-10-28T03:36:03.352Z,13.90
2022-10-28T03:37:03.376Z,13.90
2022-10-28T03:38:03.338Z,13.90
2022-10-28T03:39:03.334Z,13.90
2022-10-28T03:40:03.285Z,13.90
2022-10-28T03:41:03.262Z,13.90
2022-10-28T03:42:03.265Z,13.90
2022-10-28T03:43:03.295Z,13.90
2022-10-28T03:44:03.197Z,13.90
2022-10-28T03:45:03.255Z,13.90
2022-10-28T03:46:03.369Z,13.90
2022-10-28T03:47:03.424Z,13.90
2022-10-28T03:48:03.477Z,13.90
2022-10-28T03:49:03.403Z,13.90
2022-10-28T03:50:03.365Z,13.90
2022-10-28T03:51:03.344Z,13.90
2022-10-28T03:52:03.421Z,13.90
2022-10-28T03:53:03.513Z,13.90
2022-10-28T03:54:03.564Z,13.90
2022-10-28T03:55:03.485Z,13.90
2022-10-28T03:56:03.477Z,13.90
2022-10-28T03:57:03.595Z,13.90
2022-10-28T03:58:03.610Z,13.90
2022-10-28T03:59:02.657Z,13.90
2022-10-28T04:00:02.749Z,13.90
2022-10-28T04:01:02.786Z,13.90
2022-10-28T04:02:02.836Z,13.90
2022-10-28T04:03:02.722Z,13.90
2022-10-28T04:04:02.779Z,13.90
2022-10-28T04:05:02.873Z,13.90
2022-10-28T04:06:02.812Z,13.90
2022-10-28T04:07:02.935Z,13.90
2022-10-28T04:08:02.877Z,13.90
2022-10-28T04:09:02.881Z,14.00
2022-10-28T04:10:02.929Z,14.00
2022-10-28T04:11:03.036Z,14.00
2022-10-28T04:12:02.997Z,14.00
2022-10-28T04:13:02.999Z,14.00
2022-10-28T04:14:02.942Z,14.00
2022-10-28T04:15:03.026Z,14.00
2022-10-28T04:16:03.134Z,14.00
2022-10-28T04:17:03.119Z,14.00
2022-10-28T04:18:03.208Z,14.00
2022-10-28T04:19:03.113Z,14.00
2022-10-28T04:20:03.249Z,14.00
2022-10-28T04:21:03.186Z,14.00
2022-10-28T04:22:03.267Z,14.00
2022-10-28T04:23:03.590Z,13.90
2022-10-28T04:24:03.375Z,13.90
2022-10-28T04:25:03.973Z,13.90
2022-10-28T04:26:02.881Z,13.90
2022-10-28T04:27:02.809Z,13.90
2022-10-28T04:28:02.816Z,13.90
2022-10-28T04:29:02.941Z,13.90
2022-10-28T04:30:02.968Z,14.00
2022-10-28T04:31:02.973Z,13.90
2022-10-28T04:32:03.041Z,13.90
2022-10-28T04:33:03.156Z,13.90
2022-10-28T04:34:03.207Z,13.90
2022-10-28T04:35:03.120Z,14.00
2022-10-28T04:36:03.224Z,13.90
2022-10-28T04:37:03.231Z,13.90
2022-10-28T04:38:03.298Z,13.90
2022-10-28T04:39:03.406Z,13.90
2022-10-28T04:40:03.460Z,13.90
2022-10-28T04:41:03.417Z,13.90
2022-10-28T04:42:03.378Z,13.90
2022-10-28T04:43:04.855Z,13.80
2022-10-28T04:44:03.437Z,13.80
2022-10-28T04:45:03.161Z,13.80
2022-10-28T04:46:03.175Z,13.80
2022-10-28T04:47:03.257Z,13.80
2022-10-28T04:48:03.206Z,13.80
2022-10-28T04:49:03.189Z,13.80
2022-10-28T04:50:03.229Z,13.80
2022-10-28T04:51:03.255Z,13.80
2022-10-28T04:52:03.254Z,13.80
2022-10-28T04:53:03.289Z,13.80
2022-10-28T04:54:03.270Z,13.80
2022-10-28T04:55:03.306Z,13.80
2022-10-28T04:56:03.318Z,13.80
2022-10-28T04:57:03.318Z,13.80
2022-10-28T04:58:03.416Z,13.70
2022-10-28T04:59:03.411Z,13.70
2022-10-28T05:00:03.370Z,13.70
2022-10-28T05:01:03.420Z,13.70
2022-10-28T05:02:03.460Z,13.70
2022-10-28T05:03:03.314Z,13.70
2022-10-28T05:04:03.285Z,13.60
2022-10-28T05:05:03.476Z,13.60
2022-10-28T05:06:03.380Z,13.60
2022-10-28T05:07:03.455Z,13.60
2022-10-28T05:08:03.525Z,13.60
2022-10-28T05:09:03.389Z,13.60
2022-10-28T05:10:03.433Z,13.60
2022-10-28T05:11:03.584Z,13.60
2022-10-28T05:12:03.550Z,13.60
2022-10-28T05:13:02.692Z,13.60
2022-10-28T05:14:02.604Z,13.60
2022-10-28T05:15:03.599Z,13.60
2022-10-28T05:16:02.639Z,13.60
2022-10-28T05:17:02.845Z,13.60
2022-10-28T05:18:02.832Z,13.60
2022-10-28T05:19:02.858Z,13.60
2022-10-28T05:20:02.863Z,13.60
2022-10-28T05:21:02.845Z,13.60
2022-10-28T05:22:02.820Z,13.60
2022-10-28T05:23:02.811Z,13.60
2022-10-28T05:24:02.743Z,13.60
2022-10-28T05:25:03.233Z,13.60
2022-10-28T05:26:03.394Z,13.60
2022-10-28T05:27:03.495Z,13.70
2022-10-28T05:28:03.487Z,13.60
2022-10-28T05:29:03.415Z,13.60
2022-10-28T05:30:03.582Z,13.70
2022-10-28T05:31:03.558Z,13.60
2022-10-28T05:33:02.687Z,13.70
2022-10-28T05:34:02.610Z,13.60
2022-10-28T05:35:03.226Z,13.60
2022-10-28T05:36:03.158Z,13.60
2022-10-28T05:37:03.239Z,13.60
2022-10-28T05:38:03.303Z,13.60
2022-10-28T05:39:03.151Z,13.60
2022-10-28T05:40:03.211Z,13.50
2022-10-28T05:41:03.280Z,13.50
2022-10-28T05:42:03.377Z,13.50
2022-10-28T05:43:03.495Z,13.50
2022-10-28T05:44:03.542Z,13.50
2022-10-28T05:45:03.547Z,13.50
2022-10-28T05:46:02.593Z,13.50
2022-10-28T05:47:02.675Z,13.50
2022-10-28T05:48:02.631Z,13.50
2022-10-28T05:49:03.595Z,13.40
2022-10-28T05:50:02.725Z,13.40
2022-10-28T05:51:02.661Z,13.40
2022-10-28T05:52:02.765Z,13.40
2022-10-28T05:53:02.789Z,13.40
2022-10-28T05:54:02.847Z,13.40
2022-10-28T05:55:03.033Z,13.40
2022-10-28T05:56:02.958Z,13.40
2022-10-28T05:57:02.911Z,13.40
2022-10-28T05:58:03.121Z,13.40
2022-10-28T05:59:03.061Z,13.40
2022-10-28T06:00:03.143Z,13.40
2022-10-28T06:01:03.232Z,13.30
2022-10-28T06:02:03.301Z,13.30
2022-10-28T06:03:03.261Z,13.30
2022-10-28T06:04:03.315Z,13.30
2022-10-28T06:05:03.271Z,13.30
2022-10-28T06:06:03.363Z,13.20
2022-10-28T06:07:03.340Z,13.20
2022-10-28T06:08:03.272Z,13.20
2022-10-28T06:09:03.465Z,13.20
2022-10-28T06:10:03.429Z,13.20
2022-10-28T06:11:01.981Z,13.20
2022-10-28T06:12:02.057Z,13.20
2022-10-28T06:13:01.223Z,13.20
2022-10-28T06:14:01.277Z,13.20
2022-10-28T06:15:01.259Z,13.20
2022-10-28T06:16:01.344Z,13.20
2022-10-28T06:17:01.417Z,13.20
2022-10-28T06:18:01.457Z,13.20
2022-10-28T06:19:01.998Z,13.20
2022-10-28T06:20:02.091Z,13.20
2022-10-28T06:21:01.221Z,13.20
2022-10-28T06:22:01.231Z,13.20
2022-10-28T06:23:01.277Z,13.10
2022-10-28T06:24:01.289Z,13.10
2022-10-28T06:25:01.420Z,13.10
2022-10-28T06:26:01.413Z,13.20
2022-10-28T06:27:01.393Z,13.20
2022-10-28T06:28:01.455Z,13.20
2022-10-28T06:29:01.485Z,13.10
2022-10-28T06:30:01.570Z,13.20
2022-10-28T06:31:01.741Z,13.20
2022-10-28T06:32:01.728Z,13.20
2022-10-28T06:33:01.712Z,13.20
2022-10-28T06:34:01.753Z,13.20
2022-10-28T06:35:01.722Z,13.20
2022-10-28T06:36:01.797Z,13.20
2022-10-28T06:37:01.833Z,13.20
2022-10-28T06:38:03.783Z,13.20
2022-10-28T06:39:01.907Z,13.20
2022-10-28T06:40:01.879Z,13.30
2022-10-28T06:41:01.913Z,13.30
2022-10-28T06:42:02.049Z,13.30
2022-10-28T06:43:01.115Z,13.30
2022-10-28T06:44:02.094Z,13.30
2022-10-28T06:45:01.136Z,13.30
2022-10-28T06:46:02.126Z,13.40
2022-10-28T06:47:02.651Z,13.40
2022-10-28T06:48:02.780Z,13.40
2022-10-28T06:49:02.864Z,13.40
2022-10-28T06:50:02.860Z,13.40
2022-10-28T06:51:03.264Z,13.40
2022-10-28T06:52:03.310Z,13.40
2022-10-28T06:53:03.313Z,13.40
2022-10-28T06:54:03.458Z,13.50
2022-10-28T06:55:03.513Z,13.50
2022-10-28T06:56:03.581Z,13.50
2022-10-28T06:57:03.551Z,13.50
2022-10-28T06:58:03.571Z,13.60
2022-10-28T06:59:02.655Z,13.60
2022-10-28T07:00:02.759Z,13.60
2022-10-28T07:01:02.688Z,13.70
2022-10-28T07:02:02.875Z,13.70
2022-10-28T07:03:02.909Z,13.70
2022-10-28T07:04:02.881Z,13.70
2022-10-28T07:05:02.987Z,13.80
2022-10-28T07:06:03.110Z,13.80
2022-10-28T07:07:03.040Z,13.80
2022-10-28T07:08:03.040Z,13.80
2022-10-28T07:09:03.068Z,13.90
2022-10-28T07:10:02.962Z,13.90
2022-10-28T07:11:03.042Z,13.90
2022-10-28T07:12:04.996Z,13.90
2022-10-28T07:13:02.941Z,13.90
2022-10-28T07:14:02.975Z,13.90
2022-10-28T07:15:02.907Z,14.00
2022-10-28T07:16:03.008Z,14.00
2022-10-28T07:17:03.139Z,14.00
2022-10-28T07:18:03.090Z,14.00
2022-10-28T07:19:03.026Z,14.10
2022-10-28T07:20:03.016Z,14.10
2022-10-28T07:21:03.093Z,14.20
2022-10-28T07:22:03.101Z,14.20
2022-10-28T07:23:03.206Z,14.20
2022-10-28T07:24:03.203Z,14.30
2022-10-28T07:25:03.281Z,14.30
2022-10-28T07:26:03.157Z,14.40
2022-10-28T07:27:03.284Z,14.40
2022-10-28T07:28:03.259Z,14.40
2022-10-28T07:29:03.198Z,14.50
2022-10-28T07:30:03.227Z,14.50
2022-10-28T07:31:03.350Z,14.60
2022-10-28T07:32:03.376Z,14.60
2022-10-28T07:33:03.312Z,14.70
2022-10-28T07:34:03.443Z,14.80
2022-10-28T07:35:03.458Z,14.80
2022-10-28T07:36:03.538Z,14.90
2022-10-28T07:37:03.502Z,14.90
2022-10-28T07:38:03.579Z,15.00
2022-10-28T07:39:03.460Z,15.00
2022-10-28T07:40:03.423Z,15.10
2022-10-28T07:41:03.536Z,15.10
2022-10-28T07:42:03.500Z,15.20
2022-10-28T07:43:03.484Z,15.20
2022-10-28T07:44:03.536Z,15.20
2022-10-28T07:45:03.673Z,15.30
2022-10-28T07:46:02.763Z,15.30
2022-10-28T07:47:02.768Z,15.40
2022-10-28T07:48:02.819Z,15.40
2022-10-28T07:49:02.935Z,15.50
2022-10-28T07:50:02.916Z,15.50
2022-10-28T07:51:02.956Z,15.60
2022-10-28T07:52:03.140Z,15.60
2022-10-28T07:53:03.124Z,15.70
2022-10-28T07:54:03.142Z,15.80
2022-10-28T07:55:03.130Z,15.90
2022-10-28T07:56:03.060Z,16.00
2022-10-28T07:57:03.168Z,16.00
2022-10-28T07:58:03.139Z,16.10
2022-10-28T07:59:03.097Z,16.20
2022-10-28T08:00:03.013Z,16.30
2022-10-28T08:01:03.081Z,16.30
2022-10-28T08:02:03.121Z,16.40
2022-10-28T08:03:02.988Z,16.50
2022-10-28T08:04:03.007Z,16.60
2022-10-28T08:05:03.141Z,16.70
2022-10-28T08:06:03.269Z,16.80
2022-10-28T08:07:03.387Z,16.80
2022-10-28T08:08:03.379Z,16.90
2022-10-28T08:09:03.408Z,17.00
2022-10-28T08:10:03.505Z,17.10
2022-10-28T08:11:03.548Z,17.20
2022-10-28T08:12:03.609Z,17.30
2022-10-28T08:13:02.749Z,17.30
2022-10-28T08:14:02.743Z,17.40
2022-10-28T08:15:02.790Z,17.50
2022-10-28T08:16:02.756Z,17.50
2022-10-28T08:17:02.753Z,17.60
2022-10-28T08:18:02.775Z,17.60
2022-10-28T08:19:06.780Z,17.70
2022-10-28T08:20:03.085Z,17.70
2022-10-28T08:21:03.082Z,17.70
2022-10-28T08:22:03.062Z,17.80
2022-10-28T08:23:04.142Z,17.80
2022-10-28T08:24:03.131Z,17.80
2022-10-28T08:25:03.267Z,17.80
2022-10-28T08:26:03.185Z,17.90
2022-10-28T08:27:03.097Z,17.90
2022-10-28T08:28:03.105Z,17.90
2022-10-28T08:29:03.129Z,17.90
2022-10-28T08:30:03.145Z,17.90
2022-10-28T08:31:09.034Z,17.90
2022-10-28T08:32:03.111Z,17.90
2022-10-28T08:33:03.341Z,17.90
2022-10-28T08:34:03.330Z,17.90
2022-10-28T08:35:03.394Z,17.90
2022-10-28T08:36:03.497Z,17.90
2022-10-28T08:37:03.553Z,17.90
2022-10-28T08:38:02.657Z,17.90
2022-10-28T08:39:02.799Z,17.90
2022-10-28T08:40:02.812Z,17.90
2022-10-28T08:41:02.770Z,17.90
2022-10-28T08:42:02.772Z,17.90
2022-10-28T08:43:02.716Z,17.90
2022-10-28T08:44:02.798Z,17.90
2022-10-28T08:45:02.725Z,18.00
2022-10-28T08:46:02.699Z,18.00
2022-10-28T08:47:02.816Z,18.00
2022-10-28T08:48:02.751Z,18.00
2022-10-28T08:49:02.839Z,18.00
2022-10-28T08:50:02.894Z,18.00
2022-10-28T08:51:02.976Z,18.00
2022-10-28T08:52:02.960Z,18.00
2022-10-28T08:53:02.736Z,18.10
2022-10-28T08:54:02.708Z,18.10
2022-10-28T08:55:02.855Z,18.10
2022-10-28T08:56:02.883Z,18.10
2022-10-28T08:57:03.273Z,18.20
2022-10-28T08:58:03.270Z,18.20
2022-10-28T08:59:03.360Z,18.20
2022-10-28T09:00:03.423Z,18.20
2022-10-28T09:01:03.543Z,18.20
2022-10-28T09:02:02.663Z,18.20
2022-10-28T09:03:02.747Z,18.20
2022-10-28T09:04:02.756Z,18.30
2022-10-28T09:05:02.684Z,18.30
2022-10-28T09:06:02.771Z,18.30
2022-10-28T09:07:02.751Z,18.30
2022-10-28T09:08:02.884Z,18.30
2022-10-28T09:09:03.498Z,18.30
2022-10-28T09:10:02.898Z,18.30
2022-10-28T09:11:02.936Z,18.30
2022-10-28T09:12:02.943Z,18.30
2022-10-28T09:13:02.972Z,18.30
2022-10-28T09:14:02.897Z,18.20
2022-10-28T09:15:02.992Z,18.20
2022-10-28T09:16:03.017Z,18.30
2022-10-28T09:17:03.038Z,18.30
2022-10-28T09:18:03.084Z,18.30
2022-10-28T09:19:03.115Z,18.30
2022-10-28T09:20:03.046Z,18.30
2022-10-28T09:21:03.055Z,18.30
2022-10-28T09:22:02.976Z,18.30
2022-10-28T09:23:03.085Z,18.40
2022-10-28T09:24:03.148Z,18.40
2022-10-28T09:25:03.146Z,18.40
2022-10-28T09:26:03.138Z,18.50
2022-10-28T09:27:03.248Z,18.50
2022-10-28T09:28:03.306Z,18.50
2022-10-28T09:29:03.404Z,18.60
2022-10-28T09:30:03.298Z,18.60
2022-10-28T09:31:03.307Z,18.60
2022-10-28T09:32:03.467Z,18.60
2022-10-28T09:33:03.389Z,18.60
2022-10-28T09:34:03.464Z,18.60
2022-10-28T09:35:03.553Z,18.60
2022-10-28T09:36:02.715Z,18.70
2022-10-28T09:37:02.778Z,18.70
2022-10-28T09:38:02.906Z,18.70
2022-10-28T09:39:02.898Z,18.70
2022-10-28T09:40:02.891Z,18.70
2022-10-28T09:41:02.908Z,18.70
2022-10-28T09:42:02.956Z,18.70
2022-10-28T09:43:03.027Z,18.70
2022-10-28T09:44:03.227Z,18.70
2022-10-28T09:45:03.144Z,18.70
2022-10-28T09:46:03.156Z,18.70
2022-10-28T09:47:03.229Z,18.70
2022-10-28T09:48:03.165Z,18.70
2022-10-28T09:49:03.294Z,18.70
2022-10-28T09:50:03.380Z,18.70
2022-10-28T09:51:03.373Z,18.70
2022-10-28T09:52:03.606Z,18.70
2022-10-28T09:53:02.607Z,18.80
2022-10-28T09:54:02.784Z,18.70
2022-10-28T09:55:02.857Z,18.80
2022-10-28T09:56:02.919Z,18.80
2022-10-28T09:57:02.987Z,18.80
2022-10-28T09:58:03.073Z,18.80
2022-10-28T09:59:03.195Z,18.80
2022-10-28T10:00:03.291Z,18.80
2022-10-28T10:01:03.157Z,18.90
2022-10-28T10:02:03.421Z,18.90
2022-10-28T10:03:03.272Z,18.90
2022-10-28T10:04:03.309Z,18.90
2022-10-28T10:05:03.360Z,18.90
2022-10-28T10:06:03.447Z,19.00
2022-10-28T10:07:03.525Z,19.00
2022-10-28T10:08:03.567Z,19.00
2022-10-28T10:09:03.470Z,19.10
2022-10-28T10:11:02.636Z,19.10
2022-10-28T10:12:02.685Z,19.10
2022-10-28T10:13:02.634Z,19.20
2022-10-28T10:14:02.712Z,19.20
2022-10-28T10:15:02.787Z,19.20
2022-10-28T10:16:02.867Z,19.20
2022-10-28T10:17:02.978Z,19.20
2022-10-28T10:18:02.990Z,19.20
2022-10-28T10:19:02.868Z,19.20
2022-10-28T10:20:02.966Z,19.20
2022-10-28T10:21:02.991Z,19.20
2022-10-28T10:22:02.897Z,19.20
2022-10-28T10:23:03.006Z,19.20
2022-10-28T10:24:03.028Z,19.20
2022-10-28T10:25:03.082Z,19.20
2022-10-28T10:26:05.510Z,19.20
2022-10-28T10:27:03.016Z,19.20
2022-10-28T10:28:03.022Z,19.20
2022-10-28T10:29:03.182Z,19.20
2022-10-28T10:30:03.112Z,19.20
2022-10-28T10:31:03.165Z,19.30
2022-10-28T10:32:03.212Z,19.30
2022-10-28T10:33:03.054Z,19.30
2022-10-28T10:34:03.115Z,19.40
2022-10-28T10:35:03.110Z,19.40
2022-10-28T10:36:03.170Z,19.40
2022-10-28T10:38:03.092Z,19.40
2022-10-28T10:39:03.069Z,19.50
2022-10-28T10:40:03.130Z,19.50
2022-10-28T10:41:03.062Z,19.50
2022-10-28T10:42:03.045Z,19.60
2022-10-28T10:43:13.545Z,19.60
2022-10-28T10:44:03.181Z,19.70
2022-10-28T10:45:03.169Z,19.70
2022-10-28T10:46:03.166Z,19.70
2022-10-28T10:47:04.932Z,19.80
2022-10-28T10:48:03.254Z,19.80
2022-10-28T10:49:03.181Z,19.90
2022-10-28T10:50:03.198Z,19.90
2022-10-28T10:51:03.240Z,20.00
2022-10-28T10:52:03.268Z,20.00
2022-10-28T10:53:03.258Z,20.00
2022-10-28T10:54:03.349Z,20.10
2022-10-28T10:55:03.388Z,20.10
2022-10-28T10:56:03.400Z,20.20
2022-10-28T10:57:03.536Z,20.20
2022-10-28T10:58:02.667Z,20.20
2022-10-28T10:59:02.644Z,20.20
2022-10-28T11:00:02.783Z,20.20
2022-10-28T11:01:02.742Z,20.20
2022-10-28T11:02:02.883Z,20.20
2022-10-28T11:03:02.882Z,20.20
2022-10-28T11:04:02.942Z,20.20
2022-10-28T11:05:02.772Z,20.20
2022-10-28T11:06:22.375Z,20.30
2022-10-28T11:07:02.783Z,20.30
2022-10-28T11:08:03.363Z,20.30
2022-10-28T11:09:03.533Z,20.40
2022-10-28T11:10:03.441Z,20.40
2022-10-28T11:11:03.422Z,20.50
2022-10-28T11:12:05.113Z,20.50
2022-10-28T11:13:03.223Z,20.60
2022-10-28T11:14:03.348Z,20.60
2022-10-28T11:15:03.194Z,20.70
2022-10-28T11:16:03.152Z,20.70
2022-10-28T11:17:03.304Z,20.70
2022-10-28T11:18:03.445Z,20.80
2022-10-28T11:19:03.423Z,20.80
2022-10-28T11:20:03.492Z,20.80
2022-10-28T11:21:04.193Z,20.80
2022-10-28T11:22:03.355Z,20.80
2022-10-28T11:23:03.443Z,20.80
2022-10-28T11:24:03.490Z,20.80
2022-10-28T11:25:03.478Z,20.80
2022-10-28T11:26:03.466Z,20.80
2022-10-28T11:27:03.594Z,20.80
2022-10-28T11:28:04.350Z,20.80
2022-10-28T11:29:03.514Z,20.80
2022-10-28T11:30:02.683Z,20.80
2022-10-28T11:31:02.818Z,20.80
2022-10-28T11:32:02.750Z,20.80
2022-10-28T11:33:24.603Z,20.80
2022-10-28T11:34:02.905Z,20.80
2022-10-28T11:35:02.970Z,20.80
2022-10-28T11:36:02.947Z,20.80
2022-10-28T11:37:03.021Z,20.80
2022-10-28T11:38:03.443Z,20.80
2022-10-28T11:39:03.592Z,20.80
2022-10-28T11:40:03.526Z,20.80
2022-10-28T11:41:03.566Z,20.70
2022-10-28T11:42:03.567Z,20.70
2022-10-28T11:43:02.680Z,20.70
2022-10-28T11:44:05.380Z,20.70
2022-10-28T11:45:02.725Z,20.70
2022-10-28T11:46:02.723Z,20.70
2022-10-28T11:47:04.934Z,20.60
2022-10-28T11:48:02.869Z,20.60
2022-10-28T11:49:02.801Z,20.60
2022-10-28T11:50:02.939Z,20.60
2022-10-28T11:51:03.077Z,20.60
2022-10-28T11:52:03.210Z,20.60
2022-10-28T11:53:03.471Z,20.50
2022-10-28T11:54:03.628Z,20.50
2022-10-28T11:55:03.650Z,20.50
2022-10-28T11:56:03.562Z,20.50
2022-10-28T11:57:03.631Z,20.50
2022-10-28T11:58:03.669Z,20.50
2022-10-28T11:59:03.539Z,20.50
2022-10-28T12:00:03.635Z,20.50
2022-10-28T12:01:03.542Z,20.50
2022-10-28T12:02:02.822Z,20.40
2022-10-28T12:03:02.933Z,20.50
2022-10-28T12:04:02.728Z,20.40
2022-10-28T12:05:02.747Z,20.40
2022-10-28T12:06:03.550Z,20.40
2022-10-28T12:07:03.221Z,20.40
2022-10-28T12:08:03.202Z,20.40
2022-10-28T12:09:03.237Z,20.40
2022-10-28T12:10:03.161Z,20.40
2022-10-28T12:11:03.289Z,20.40
2022-10-28T12:12:03.431Z,20.40
2022-10-28T12:13:03.710Z,20.40
2022-10-28T12:14:03.579Z,20.40
2022-10-28T12:15:02.681Z,20.40
2022-10-28T12:16:02.663Z,20.40
2022-10-28T12:17:02.754Z,20.40
2022-10-28T12:18:05.877Z,20.40
2022-10-28T12:19:02.892Z,20.50
2022-10-28T12:20:02.882Z,20.50
2022-10-28T12:21:02.987Z,20.50
2022-10-28T12:22:03.233Z,20.50
2022-10-28T12:23:03.202Z,20.50
2022-10-28T12:24:03.403Z,20.50
2022-10-28T12:25:03.433Z,20.50
2022-10-28T12:26:03.507Z,20.50
2022-10-28T12:27:03.434Z,20.50
2022-10-28T12:28:03.571Z,20.50
2022-10-28T12:29:03.673Z,20.50
2022-10-28T12:30:02.654Z,20.50
2022-10-28T12:31:02.636Z,20.50
2022-10-28T12:32:02.838Z,20.60
2022-10-28T12:33:02.871Z,20.60
2022-10-28T12:34:02.858Z,20.60
2022-10-28T12:35:03.007Z,20.60
2022-10-28T12:36:03.095Z,20.60
2022-10-28T12:37:02.964Z,20.60
2022-10-28T12:38:03.049Z,20.70
2022-10-28T12:39:03.059Z,20.70
2022-10-28T12:40:03.166Z,20.70
2022-10-28T12:41:03.216Z,20.70
2022-10-28T12:42:03.241Z,20.70
2022-10-28T12:43:03.227Z,20.80
2022-10-28T12:44:02.946Z,20.80
2022-10-28T12:45:03.082Z,20.80
2022-10-28T12:46:03.011Z,20.80
2022-10-28T12:47:03.094Z,20.80
2022-10-28T12:48:03.130Z,20.80
2022-10-28T12:49:03.130Z,20.80
2022-10-28T12:50:03.101Z,20.90
2022-10-28T12:51:03.062Z,20.90
2022-10-28T12:52:03.251Z,20.90
2022-10-28T12:53:03.294Z,20.90
2022-10-28T12:54:03.220Z,20.90
2022-10-28T12:55:03.360Z,20.90
2022-10-28T12:56:03.454Z,20.90